createdAt,value
2018-11-21T00:01:08.303Z,100146.97
2018-11-21T00:04:03.291Z,100149.13
2018-11-21T00:06:57.764Z,100151.32
2018-11-21T00:09:52.055Z,100146.45
2018-11-21T00:12:50.110Z,100147.29
2018-11-21T00:15:44.619Z,100151.51
2018-11-21T00:18:38.911Z,100154.89
2018-11-21T00:21:33.074Z,100154.16
2018-11-21T00:24:27.630Z,100153.78
2018-11-21T00:27:22.007Z,100151.28
2018-11-21T00:30:16.892Z,100157.16
2018-11-21T00:33:11.299Z,100157.02
2018-11-21T00:36:05.858Z,100155.56
2018-11-21T00:38:59.939Z,100155.34
2018-11-21T00:41:54.777Z,100155.79
2018-11-21T00:44:48.975Z,100173.72
2018-11-21T00:47:43.292Z,100167.64
2018-11-21T00:50:41.145Z,100174.37
2018-11-21T00:53:35.441Z,100171.36
2018-11-21T00:56:29.736Z,100168.19
2018-11-21T00:59:24.170Z,100173.42
2018-11-21T01:02:18.327Z,100175.80
2018-11-21T01:05:13.018Z,100170.08
2018-11-21T01:08:07.456Z,100166.06
2018-11-21T01:11:01.904Z,100170.52
2018-11-21T01:13:56.267Z,100176.98
2018-11-21T01:16:51.677Z,100169.88
2018-11-21T01:19:46.144Z,100168.55
2018-11-21T01:22:40.743Z,100168.88
2018-11-21T01:25:34.889Z,100175.15
2018-11-21T01:28:29.547Z,100178.02
2018-11-21T01:31:23.733Z,100177.64
2018-11-21T01:34:19.001Z,100179.23
2018-11-21T01:37:13.371Z,100174.55
2018-11-21T01:40:09.081Z,100177.99
2018-11-21T01:43:03.537Z,100176.02
2018-11-21T01:45:57.572Z,100176.27
2018-11-21T01:48:51.631Z,100172.90
2018-11-21T01:51:46.466Z,100179.17
2018-11-21T01:54:40.719Z,100180.88
2018-11-21T01:57:34.902Z,100178.31
2018-11-21T02:00:29.480Z,100175.20
2018-11-21T02:03:23.785Z,100166.33
2018-11-21T02:06:18.075Z,100176.53
2018-11-21T02:09:12.853Z,100175.45
2018-11-21T02:12:07.151Z,100175.17
2018-11-21T02:15:01.498Z,100181.81
2018-11-21T02:17:55.767Z,100180.16
2018-11-21T02:20:52.815Z,100179.88
2018-11-21T02:23:47.298Z,100182.70
2018-11-21T02:26:41.741Z,100179.84
2018-11-21T02:29:36.091Z,100176.22
2018-11-21T02:32:30.624Z,100184.06
2018-11-21T02:35:25.051Z,100176.95
2018-11-21T02:38:19.285Z,100174.30
2018-11-21T02:41:13.571Z,100177.05
2018-11-21T02:44:08.169Z,100175.24
2018-11-21T02:47:02.587Z,100171.49
2018-11-21T02:49:57.277Z,100177.16
2018-11-21T02:52:51.587Z,100180.48
2018-11-21T02:55:46.284Z,100184.20
2018-11-21T02:58:40.339Z,100182.84
2018-11-21T03:01:34.542Z,100187.00
2018-11-21T03:04:28.910Z,100192.17
2018-11-21T03:07:23.192Z,100189.84
2018-11-21T03:10:17.789Z,100196.17
2018-11-21T03:13:12.488Z,100189.86
2018-11-21T03:16:06.486Z,100187.08
2018-11-21T03:19:01.033Z,100192.28
2018-11-21T03:21:55.568Z,100197.41
2018-11-21T03:24:49.954Z,100195.02
2018-11-21T03:27:44.383Z,100193.80
2018-11-21T03:30:39.102Z,100193.57
2018-11-21T03:33:33.084Z,100198.44
2018-11-21T03:36:27.468Z,100195.11
2018-11-21T03:39:23.007Z,100195.84
2018-11-21T03:42:19.806Z,100189.59
2018-11-21T03:45:14.244Z,100200.80
2018-11-21T03:48:08.305Z,100201.06
2018-11-21T03:51:02.767Z,100193.45
2018-11-21T03:53:57.496Z,100198.22
2018-11-21T03:56:51.671Z,100204.43
2018-11-21T03:59:46.252Z,100192.50
2018-11-21T04:02:40.702Z,100199.38
2018-11-21T04:05:35.262Z,100201.38
2018-11-21T04:08:29.740Z,100206.12
2018-11-21T04:11:24.195Z,100206.45
2018-11-21T04:14:18.162Z,100202.39
2018-11-21T04:17:12.237Z,100204.44
2018-11-21T04:20:07.397Z,100203.37
2018-11-21T04:23:01.700Z,100204.64
2018-11-21T04:25:55.832Z,100206.39
2018-11-21T04:28:50.609Z,100208.92
2018-11-21T04:31:45.085Z,100217.62
2018-11-21T04:34:39.457Z,100221.95
2018-11-21T04:37:33.773Z,100224.27
2018-11-21T04:40:28.013Z,100224.93
2018-11-21T04:43:21.921Z,100222.59
2018-11-21T04:46:17.488Z,100234.20
2018-11-21T04:49:11.534Z,100239.66
2018-11-21T04:52:06.388Z,100242.46
2018-11-21T04:55:00.339Z,100241.70
2018-11-21T04:57:54.905Z,100246.94
2018-11-21T05:00:48.905Z,100252.89
2018-11-21T05:03:43.227Z,100257.61
2018-11-21T05:06:37.524Z,100254.64
2018-11-21T05:09:32.046Z,100254.83
2018-11-21T05:12:26.620Z,100254.60
2018-11-21T05:15:20.653Z,100255.25
2018-11-21T05:18:14.884Z,100260.96
2018-11-21T05:21:09.652Z,100253.22
2018-11-21T05:24:04.079Z,100258.52
2018-11-21T05:26:58.601Z,100267.08
2018-11-21T05:29:53.014Z,100271.77
2018-11-21T05:32:47.316Z,100274.37
2018-11-21T05:35:41.810Z,100260.91
2018-11-21T05:38:36.561Z,100266.97
2018-11-21T05:41:31.008Z,100277.47
2018-11-21T05:44:31.279Z,100279.88
2018-11-21T05:47:22.015Z,100283.52
2018-11-21T05:50:16.687Z,100277.48
2018-11-21T05:53:12.085Z,100274.94
2018-11-21T05:56:06.806Z,100278.75
2018-11-21T05:59:01.078Z,100284.07
2018-11-21T06:01:55.117Z,100286.19
2018-11-21T06:04:49.567Z,100292.83
2018-11-21T06:07:43.631Z,100299.04
2018-11-21T06:10:39.078Z,100298.28
2018-11-21T06:13:33.790Z,100308.59
2018-11-21T06:16:27.663Z,100307.20
2018-11-21T06:19:22.257Z,100309.27
2018-11-21T06:22:16.614Z,100314.84
2018-11-21T06:25:12.108Z,100317.61
2018-11-21T06:28:06.380Z,100309.28
2018-11-21T06:31:00.461Z,100313.33
2018-11-21T06:33:55.160Z,100313.88
2018-11-21T06:36:49.310Z,100313.82
2018-11-21T06:39:43.391Z,100318.74
2018-11-21T06:42:37.778Z,100326.69
2018-11-21T06:45:31.802Z,100329.43
2018-11-21T06:48:26.245Z,100328.87
2018-11-21T06:51:20.839Z,100336.97
2018-11-21T06:54:15.514Z,100335.17
2018-11-21T06:57:09.633Z,100342.27
2018-11-21T07:00:04.103Z,100343.66
2018-11-21T07:02:58.776Z,100351.44
2018-11-21T07:05:53.231Z,100348.91
2018-11-21T07:08:47.524Z,100350.52
2018-11-21T07:11:42.533Z,100353.13
2018-11-21T07:14:36.937Z,100357.85
2018-11-21T07:17:31.419Z,100356.62
2018-11-21T07:20:25.964Z,100359.25
2018-11-21T07:23:20.461Z,100355.55
2018-11-21T07:26:14.785Z,100360.16
2018-11-21T07:29:09.233Z,100365.80
2018-11-21T07:32:03.337Z,100367.41
2018-11-21T07:34:57.719Z,100373.11
2018-11-21T07:37:52.087Z,100373.33
2018-11-21T07:40:46.747Z,100377.58
2018-11-21T07:43:40.681Z,100380.00
2018-11-21T07:46:34.808Z,100382.58
2018-11-21T07:49:29.185Z,100380.80
2018-11-21T07:52:23.644Z,100384.02
2018-11-21T07:55:17.792Z,100388.17
2018-11-21T07:58:14.416Z,100387.82
2018-11-21T08:01:28.244Z,100396.41
2018-11-21T08:04:27.689Z,100391.93
2018-11-21T08:07:32.757Z,100394.99
2018-11-21T08:10:45.806Z,100390.50
2018-11-21T08:13:57.388Z,100391.42
2018-11-21T08:17:09.176Z,100406.58
2018-11-21T08:20:21.653Z,100418.87
2018-11-21T08:23:33.769Z,100417.03
2018-11-21T08:26:43.100Z,100421.05
2018-11-21T08:29:37.386Z,100430.33
2018-11-21T08:32:31.476Z,100426.72
2018-11-21T08:35:25.835Z,100433.27
2018-11-21T08:38:20.553Z,100434.67
2018-11-21T08:41:14.656Z,100440.64
2018-11-21T08:44:09.027Z,100449.24
2018-11-21T08:47:03.321Z,100446.46
2018-11-21T08:49:58.132Z,100442.12
2018-11-21T08:52:52.647Z,100447.84
2018-11-21T08:55:46.749Z,100436.95
2018-11-21T08:58:41.458Z,100439.91
2018-11-21T09:01:35.591Z,100440.05
2018-11-21T09:04:30.600Z,100441.83
2018-11-21T09:07:25.324Z,100438.92
2018-11-21T09:10:19.783Z,100440.05
2018-11-21T09:13:13.643Z,100446.77
2018-11-21T09:16:07.787Z,100452.70
2018-11-21T09:19:02.281Z,100454.11
2018-11-21T09:21:56.443Z,100458.92
2018-11-21T09:24:50.637Z,100456.00
2018-11-21T09:27:44.815Z,100464.58
2018-11-21T09:30:39.741Z,100467.48
2018-11-21T09:33:34.860Z,100472.53
2018-11-21T09:36:29.276Z,100473.67
2018-11-21T09:39:23.546Z,100468.46
2018-11-21T09:42:17.960Z,100458.06
2018-11-21T09:45:13.776Z,100466.42
2018-11-21T09:48:08.186Z,100462.36
2018-11-21T09:51:02.407Z,100463.79
2018-11-21T09:53:58.798Z,100465.05
2018-11-21T09:56:52.825Z,100463.66
2018-11-21T09:59:47.242Z,100465.75
2018-11-21T10:03:11.053Z,100463.26
2018-11-21T10:06:23.973Z,100465.95
2018-11-21T10:09:23.072Z,100459.84
2018-11-21T10:12:17.647Z,100457.86
2018-11-21T10:15:12.023Z,100458.83
2018-11-21T10:18:06.702Z,100454.63
2018-11-21T10:21:01.542Z,100451.49
2018-11-21T10:23:56.676Z,100463.01
2018-11-21T10:26:50.840Z,100459.48
2018-11-21T10:29:45.015Z,100460.48
2018-11-21T10:32:39.337Z,100454.33
2018-11-21T10:35:35.958Z,100456.04
2018-11-21T10:38:28.642Z,100460.80
2018-11-21T10:41:23.128Z,100458.95
2018-11-21T10:44:17.937Z,100455.59
2018-11-21T10:47:12.368Z,100451.72
2018-11-21T10:50:08.206Z,100451.78
2018-11-21T10:53:02.638Z,100458.56
2018-11-21T10:55:56.874Z,100453.17
2018-11-21T10:58:51.269Z,100459.16
2018-11-21T11:02:03.441Z,100454.32
2018-11-21T11:05:06.357Z,100460.04
2018-11-21T11:08:32.292Z,100465.57
2018-11-21T11:11:44.849Z,100465.41
2018-11-21T11:14:57.721Z,100469.35
2018-11-21T11:18:15.960Z,100470.55
2018-11-21T11:21:33.836Z,100466.44
2018-11-21T11:24:56.726Z,100464.69
2018-11-21T11:28:52.717Z,100467.44
2018-11-21T11:32:07.027Z,100461.25
2018-11-21T11:35:18.133Z,100465.70
2018-11-21T11:38:34.351Z,100470.53
2018-11-21T11:41:49.472Z,100473.63
2018-11-21T11:45:08.797Z,100474.72
2018-11-21T11:48:31.518Z,100471.48
2018-11-21T11:51:46.705Z,100473.55
2018-11-21T11:55:01.285Z,100468.39
2018-11-21T11:58:16.400Z,100475.19
2018-11-21T12:01:23.552Z,100475.10
2018-11-21T12:04:31.687Z,100480.92
2018-11-21T12:07:46.569Z,100472.84
2018-11-21T12:11:01.400Z,100475.93
2018-11-21T12:14:36.551Z,100474.87
2018-11-21T12:17:51.657Z,100474.93
2018-11-21T12:21:06.227Z,100473.66
2018-11-21T12:24:21.516Z,100476.09
2018-11-21T12:27:42.103Z,100473.16
2018-11-21T12:30:58.731Z,100474.36
2018-11-21T12:34:13.338Z,100469.42
2018-11-21T12:37:38.756Z,100471.13
2018-11-21T12:40:54.806Z,100469.06
2018-11-21T12:44:03.072Z,100464.78
2018-11-21T12:47:22.415Z,100465.54
2018-11-21T12:50:41.392Z,100468.41
2018-11-21T12:53:53.894Z,100467.86
2018-11-21T12:57:14.712Z,100465.62
2018-11-21T13:00:22.105Z,100467.99
2018-11-21T13:03:29.490Z,100472.67
2018-11-21T13:06:45.064Z,100478.67
2018-11-21T13:10:04.728Z,100471.84
2018-11-21T13:13:19.325Z,100473.77
2018-11-21T13:16:41.947Z,100481.81
2018-11-21T13:19:55.375Z,100472.89
2018-11-21T13:23:17.311Z,100480.28
2018-11-21T13:26:31.966Z,100482.80
2018-11-21T13:30:03.745Z,100491.58
2018-11-21T13:33:19.220Z,100498.88
2018-11-21T13:36:34.517Z,100503.27
2018-11-21T13:39:59.516Z,100500.20
2018-11-21T13:43:31.043Z,100504.96
2018-11-21T13:46:36.012Z,100511.63
2018-11-21T13:49:52.103Z,100506.33
2018-11-21T13:53:20.495Z,100507.95
2018-11-21T13:56:18.053Z,100509.02
2018-11-21T13:59:15.820Z,100503.93
2018-11-21T14:02:13.440Z,100507.87
2018-11-21T14:05:13.174Z,100508.80
2018-11-21T14:08:11.374Z,100505.52
2018-11-21T14:11:09.544Z,100509.98
2018-11-21T14:14:08.376Z,100517.41
2018-11-21T14:17:06.044Z,100511.80
2018-11-21T14:20:03.671Z,100515.63
2018-11-21T14:23:01.434Z,100516.44
2018-11-21T14:25:59.026Z,100515.72
2018-11-21T14:28:58.174Z,100520.55
2018-11-21T14:31:55.924Z,100512.48
2018-11-21T14:34:54.438Z,100517.88
2018-11-21T14:37:52.380Z,100516.59
2018-11-21T14:40:50.474Z,100519.36
2018-11-21T14:43:48.112Z,100518.80
2018-11-21T14:46:49.406Z,100516.38
2018-11-21T14:49:51.230Z,100517.34
2018-11-21T14:52:48.815Z,100519.13
2018-11-21T14:55:46.652Z,100527.81
2018-11-21T14:58:44.144Z,100523.48
2018-11-21T15:01:41.650Z,100526.70
2018-11-21T15:04:39.466Z,100529.70
2018-11-21T15:07:37.687Z,100534.80
2018-11-21T15:10:35.090Z,100537.77
2018-11-21T15:13:32.727Z,100539.43
2018-11-21T15:16:32.586Z,100543.95
2018-11-21T15:19:30.572Z,100544.61
2018-11-21T15:22:28.548Z,100544.33
2018-11-21T15:25:26.221Z,100548.29
2018-11-21T15:28:24.432Z,100552.80
2018-11-21T15:31:22.487Z,100549.09
2018-11-21T15:34:20.303Z,100550.20
2018-11-21T15:37:17.488Z,100548.39
2018-11-21T15:40:18.320Z,100555.87
2018-11-21T15:43:16.077Z,100555.26
2018-11-21T15:46:14.013Z,100555.03
2018-11-21T15:49:11.715Z,100559.88
2018-11-21T15:52:10.034Z,100558.94
2018-11-21T15:55:09.376Z,100559.09
2018-11-21T15:58:07.309Z,100563.55
2018-11-21T16:01:05.318Z,100566.75
2018-11-21T16:04:21.975Z,100566.53
2018-11-21T16:07:19.817Z,100569.89
2018-11-21T16:10:19.897Z,100577.46
2018-11-21T16:13:17.731Z,100576.53
2018-11-21T16:16:16.224Z,100577.36
2018-11-21T16:19:17.444Z,100583.78
2018-11-21T16:22:15.493Z,100589.69
2018-11-21T16:25:15.329Z,100592.77
2018-11-21T16:28:13.257Z,100593.80
2018-11-21T16:31:10.891Z,100595.66
2018-11-21T16:34:09.120Z,100593.98
2018-11-21T16:37:18.434Z,100595.63
2018-11-21T16:40:22.524Z,100599.17
2018-11-21T16:43:20.638Z,100605.66
2018-11-21T16:46:19.446Z,100606.89
2018-11-21T16:49:17.112Z,100604.61
2018-11-21T16:52:15.111Z,100602.86
2018-11-21T16:55:17.872Z,100603.45
2018-11-21T16:58:15.642Z,100605.62
2018-11-21T17:01:14.429Z,100605.38
2018-11-21T17:04:12.506Z,100607.44
2018-11-21T17:07:10.202Z,100609.69
2018-11-21T17:10:11.655Z,100613.15
2018-11-21T17:13:09.829Z,100612.17
2018-11-21T17:16:08.799Z,100609.52
2018-11-21T17:19:06.676Z,100608.66
2018-11-21T17:22:04.513Z,100608.28
2018-11-21T17:25:02.952Z,100614.14
2018-11-21T17:28:01.011Z,100617.75
2018-11-21T17:30:58.878Z,100618.34
2018-11-21T17:33:56.596Z,100611.50
2018-11-21T17:36:54.285Z,100619.58
2018-11-21T17:39:52.340Z,100621.79
2018-11-21T17:42:49.984Z,100626.36
2018-11-21T17:45:47.481Z,100628.03
2018-11-21T17:48:45.767Z,100623.69
2018-11-21T17:51:43.246Z,100630.73
2018-11-21T17:54:41.550Z,100624.83
2018-11-21T17:57:39.286Z,100631.97
2018-11-21T18:00:36.714Z,100636.81
2018-11-21T18:03:36.179Z,100637.37
2018-11-21T18:06:34.023Z,100638.69
2018-11-21T18:09:31.913Z,100635.20
2018-11-21T18:12:29.736Z,100639.42
2018-11-21T18:15:27.820Z,100645.50
2018-11-21T18:18:26.216Z,100645.44
2018-11-21T18:21:24.173Z,100641.17
2018-11-21T18:24:21.867Z,100641.83
2018-11-21T18:27:20.026Z,100642.71
2018-11-21T18:30:19.842Z,100639.64
2018-11-21T18:33:17.513Z,100642.08
2018-11-21T18:36:15.125Z,100634.84
2018-11-21T18:39:14.355Z,100649.05
2018-11-21T18:42:11.918Z,100652.62
2018-11-21T18:45:14.309Z,100649.43
2018-11-21T18:48:12.172Z,100658.61
2018-11-21T18:51:09.873Z,100657.87
2018-11-21T18:54:08.029Z,100653.58
2018-11-21T18:57:37.597Z,100652.55
2018-11-21T19:00:37.954Z,100654.07
2018-11-21T19:03:35.510Z,100649.48
2018-11-21T19:06:33.326Z,100647.53
2018-11-21T19:09:32.523Z,100647.75
2018-11-21T19:12:30.353Z,100649.02
2018-11-21T19:15:28.250Z,100648.47
2018-11-21T19:18:25.920Z,100651.27
2018-11-21T19:21:23.952Z,100655.62
2018-11-21T19:24:21.505Z,100653.52
2018-11-21T19:27:19.211Z,100649.48
2018-11-21T19:30:19.189Z,100657.53
2018-11-21T19:33:17.060Z,100657.87
2018-11-21T19:36:17.055Z,100664.78
2018-11-21T19:39:15.225Z,100671.07
2018-11-21T19:42:13.232Z,100675.22
2018-11-21T19:45:14.174Z,100668.34
2018-11-21T19:48:12.020Z,100674.69
2018-11-21T19:51:10.761Z,100673.16
2018-11-21T19:54:10.927Z,100681.05
2018-11-21T19:57:09.892Z,100684.56
2018-11-21T20:00:11.275Z,100691.06
2018-11-21T20:03:09.687Z,100685.13
2018-11-21T20:06:07.994Z,100686.38
2018-11-21T20:09:08.303Z,100681.55
2018-11-21T20:12:08.842Z,100683.45
2018-11-21T20:15:07.307Z,100683.58
2018-11-21T20:18:07.554Z,100686.31
2018-11-21T20:21:05.136Z,100684.63
2018-11-21T20:24:02.999Z,100681.66
2018-11-21T20:27:00.833Z,100690.80
2018-11-21T20:29:59.106Z,100686.98
2018-11-21T20:32:56.790Z,100688.71
2018-11-21T20:35:54.548Z,100686.67
2018-11-21T20:38:52.843Z,100681.41
2018-11-21T20:41:50.723Z,100683.81
2018-11-21T20:44:48.580Z,100681.73
2018-11-21T20:47:47.140Z,100683.53
2018-11-21T20:50:44.682Z,100683.45
2018-11-21T20:53:42.604Z,100685.86
2018-11-21T20:56:40.345Z,100687.81
2018-11-21T20:59:39.547Z,100687.47
2018-11-21T21:02:37.270Z,100691.11
2018-11-21T21:05:35.284Z,100687.12
2018-11-21T21:08:33.481Z,100686.00
2018-11-21T21:11:31.571Z,100682.82
2018-11-21T21:14:29.443Z,100687.34
2018-11-21T21:17:27.035Z,100694.23
2018-11-21T21:20:26.412Z,100695.90
2018-11-21T21:23:24.570Z,100694.41
2018-11-21T21:26:22.335Z,100697.16
2018-11-21T21:29:20.104Z,100699.55
2018-11-21T21:32:17.617Z,100702.99
2018-11-21T21:35:16.362Z,100700.41
2018-11-21T21:38:14.584Z,100694.78
2018-11-21T21:41:12.453Z,100692.48
2018-11-21T21:44:10.894Z,100697.38
2018-11-21T21:47:08.953Z,100699.27
2018-11-21T21:50:08.676Z,100697.92
2018-11-21T21:53:10.841Z,100703.92
2018-11-21T21:56:08.546Z,100697.78
2018-11-21T21:59:06.748Z,100700.96
2018-11-21T22:02:04.426Z,100701.95
2018-11-21T22:05:02.286Z,100700.88
2018-11-21T22:07:59.728Z,100697.83
2018-11-21T22:10:58.279Z,100705.38
2018-11-21T22:13:56.307Z,100706.52
2018-11-21T22:16:54.118Z,100705.52
2018-11-21T22:19:51.884Z,100708.64
2018-11-21T22:22:49.214Z,100704.80
2018-11-21T22:25:46.772Z,100702.93
2018-11-21T22:28:44.661Z,100710.63
2018-11-21T22:31:42.543Z,100706.90
2018-11-21T22:34:40.882Z,100704.73
2018-11-21T22:37:38.284Z,100713.52
2018-11-21T22:40:36.361Z,100707.20
2018-11-21T22:43:33.916Z,100709.85
2018-11-21T22:46:32.483Z,100710.00
2018-11-21T22:49:30.370Z,100706.98
2018-11-21T22:52:30.462Z,100714.63
2018-11-21T22:55:28.429Z,100709.63
2018-11-21T22:58:25.966Z,100708.55
2018-11-21T23:01:29.043Z,100713.06
2018-11-21T23:04:26.590Z,100715.60
2018-11-21T23:07:24.238Z,100708.00
2018-11-21T23:10:27.769Z,100706.22
2018-11-21T23:13:25.117Z,100701.75
2018-11-21T23:16:22.421Z,100701.61
2018-11-21T23:19:19.792Z,100704.95
2018-11-21T23:22:17.957Z,100709.47
2018-11-21T23:25:16.666Z,100710.22
2018-11-21T23:28:15.763Z,100720.38
2018-11-21T23:31:13.823Z,100723.94
2018-11-21T23:34:11.529Z,100726.48
2018-11-21T23:37:09.542Z,100722.94
2018-11-21T23:40:09.463Z,100716.15
2018-11-21T23:43:07.097Z,100718.46
2018-11-21T23:46:05.018Z,100719.67
2018-11-21T23:49:02.775Z,100719.19
2018-11-21T23:52:00.924Z,100715.61
2018-11-21T23:54:58.854Z,100717.42
2018-11-21T23:57:56.246Z,100720.13
